Time;durP1;ratioP1;P1;durP2;ratioP2;P2;SDS_P1;SDS_P2;PMS_P1;PMS_P2;Temp;Humidity;BMP_temperature;BMP_pressure;BME280_temperature;BME280_humidity;BME280_pressure;Samples;Min_cycle;Max_cycle;Signal;HPM_P1;HPM_P2
2023/05/03 00:01:36;;;;;;;3.28;1.58;;;;;;;;;;5050931;28;20036;-81
2023/05/03 00:04:02;;;;;;;4.00;1.77;;;;;;;;;;5052655;28;20040;-81
2023/05/03 00:06:28;;;;;;;3.30;1.40;;;;;;;;;;5061688;28;20408;-82
2023/05/03 00:08:53;;;;;;;2.97;1.30;;;;;;;;;;5054283;28;20033;-82
2023/05/03 00:11:18;;;;;;;5.60;1.45;;;;;;;;;;5058204;28;20032;-81
2023/05/03 00:13:44;;;;;;;3.95;1.55;;;;;;;;;;5053329;28;20036;-81
2023/05/03 00:16:10;;;;;;;2.97;1.42;;;;;;;;;;5051248;28;20135;-81
2023/05/03 00:18:35;;;;;;;5.15;1.63;;;;;;;;;;5053803;28;20049;-81
2023/05/03 00:21:01;;;;;;;4.25;1.60;;;;;;;;;;5042139;28;20056;-81
2023/05/03 00:23:27;;;;;;;4.00;1.75;;;;;;;;;;5056890;28;20052;-82
2023/05/03 00:25:56;;;;;;;3.20;1.38;;;;;;;;;;5056550;28;20036;-81
2023/05/03 00:28:22;;;;;;;4.22;1.70;;;;;;;;;;5055618;28;20075;-81
2023/05/03 00:30:47;;;;;;;4.38;1.42;;;;;;;;;;5054013;28;20127;-81
2023/05/03 00:33:14;;;;;;;4.78;1.60;;;;;;;;;;5038263;28;20041;-81
2023/05/03 00:35:39;;;;;;;5.05;1.90;;;;;;;;;;5053059;28;20561;-81
2023/05/03 00:38:05;;;;;;;6.03;1.63;;;;;;;;;;5052093;28;20041;-81
2023/05/03 00:40:30;;;;;;;5.82;1.48;;;;;;;;;;5051877;28;20056;-80
2023/05/03 00:42:56;;;;;;;4.95;1.40;;;;;;;;;;5045567;28;20044;-81
2023/05/03 00:45:21;;;;;;;4.70;1.67;;;;;;;;;;5041249;28;20052;-81
2023/05/03 00:47:46;;;;;;;4.05;1.35;;;;;;;;;;5052460;28;20045;-81
2023/05/03 00:50:12;;;;;;;4.75;1.40;;;;;;;;;;5050721;28;20028;-81
2023/05/03 00:52:38;;;;;;;5.50;1.73;;;;;;;;;;5057808;28;20047;-80
2023/05/03 00:55:04;;;;;;;4.13;2.10;;;;;;;;;;5058242;28;20132;-81
2023/05/03 00:57:29;;;;;;;5.60;2.10;;;;;;;;;;5051743;28;20060;-80
2023/05/03 00:59:59;;;;;;;5.28;1.75;;;;;;;;;;5050917;28;20041;-80
2023/05/03 01:02:25;;;;;;;4.85;1.42;;;;;;;;;;5060571;28;20037;-81
2023/05/03 01:04:51;;;;;;;3.28;1.58;;;;;;;;;;5050378;28;20044;-81
2023/05/03 01:07:29;;;;;;;2.60;1.30;;;;;;;;;;5044965;28;20046;-81
2023/05/03 01:10:00;;;;;;;4.85;1.92;;;;;;;;;;5044197;28;20040;-81
2023/05/03 01:12:48;;;;;;;4.78;1.80;;;;;;;;;;5042981;28;20172;-81
2023/05/03 01:15:24;;;;;;;6.70;1.70;;;;;;;;;;5051619;28;20496;-81
2023/05/03 01:17:53;;;;;;;3.20;1.57;;;;;;;;;;5045362;28;20044;-82
2023/05/03 01:20:25;;;;;;;12.50;2.13;;;;;;;;;;5053241;28;20071;-81
2023/05/03 01:22:56;;;;;;;4.55;1.65;;;;;;;;;;5055424;28;20120;-82
2023/05/03 01:25:22;;;;;;;3.80;1.58;;;;;;;;;;5053270;28;20059;-81
2023/05/03 01:27:48;;;;;;;4.88;1.63;;;;;;;;;;5055578;28;20048;-81
2023/05/03 01:30:13;;;;;;;7.10;1.80;;;;;;;;;;5053350;28;20134;-81
2023/05/03 01:33:00;;;;;;;3.15;1.45;;;;;;;;;;5052543;28;20036;-80
2023/05/03 01:35:35;;;;;;;7.93;1.60;;;;;;;;;;5043627;28;20587;-81
2023/05/03 01:38:00;;;;;;;3.72;1.30;;;;;;;;;;5052176;28;20041;-81
2023/05/03 01:40:27;;;;;;;5.30;1.63;;;;;;;;;;5041241;28;20048;-82
2023/05/03 01:42:54;;;;;;;6.97;1.77;;;;;;;;;;5054426;28;20396;-81
2023/05/03 01:45:20;;;;;;;4.05;1.55;;;;;;;;;;5036538;28;20496;-81
2023/05/03 01:47:45;;;;;;;5.95;1.70;;;;;;;;;;5052216;28;20085;-81
2023/05/03 01:50:11;;;;;;;3.92;1.58;;;;;;;;;;5051031;28;20433;-81
2023/05/03 01:52:36;;;;;;;4.95;1.40;;;;;;;;;;5036835;28;20059;-81
2023/05/03 01:55:02;;;;;;;3.45;1.55;;;;;;;;;;5054184;28;20044;-80
2023/05/03 01:57:27;;;;;;;4.20;1.73;;;;;;;;;;5051793;28;20044;-81
2023/05/03 01:59:53;;;;;;;6.03;2.22;;;;;;;;;;5051754;28;20056;-80
2023/05/03 02:02:18;;;;;;;4.47;1.58;;;;;;;;;;5054702;28;20032;-81
2023/05/03 02:04:45;;;;;;;8.30;1.90;;;;;;;;;;5053221;28;20078;-81
2023/05/03 02:07:10;;;;;;;4.40;1.70;;;;;;;;;;5048661;28;20465;-81
2023/05/03 02:09:35;;;;;;;3.35;1.33;;;;;;;;;;5053489;28;20052;-81
2023/05/03 02:12:01;;;;;;;3.67;1.40;;;;;;;;;;5051338;28;20040;-80
2023/05/03 02:14:26;;;;;;;4.35;1.48;;;;;;;;;;5051552;28;20040;-80
2023/05/03 02:16:54;;;;;;;2.80;1.40;;;;;;;;;;5035868;28;20415;-81
2023/05/03 02:19:20;;;;;;;3.42;1.80;;;;;;;;;;5050841;28;20037;-81
2023/05/03 02:21:45;;;;;;;3.65;1.60;;;;;;;;;;5049708;28;20085;-81
2023/05/03 02:24:11;;;;;;;3.85;1.70;;;;;;;;;;5053226;28;20495;-81
2023/05/03 02:26:36;;;;;;;4.10;1.40;;;;;;;;;;5051986;28;20048;-80
2023/05/03 02:29:02;;;;;;;4.60;1.52;;;;;;;;;;5042867;28;20033;-80
2023/05/03 02:31:27;;;;;;;4.00;1.65;;;;;;;;;;5052106;28;20395;-80
2023/05/03 02:33:53;;;;;;;5.05;1.38;;;;;;;;;;5037483;28;20100;-80
2023/05/03 02:36:19;;;;;;;4.72;1.35;;;;;;;;;;5051059;28;20035;-81
2023/05/03 02:38:45;;;;;;;6.68;1.80;;;;;;;;;;5049787;28;20063;-81
2023/05/03 02:41:10;;;;;;;3.15;1.50;;;;;;;;;;5035145;28;20029;-81
2023/05/03 02:43:35;;;;;;;4.28;1.80;;;;;;;;;;5037732;28;20110;-80
2023/05/03 02:46:01;;;;;;;3.65;1.65;;;;;;;;;;5048880;28;20036;-80
2023/05/03 02:48:26;;;;;;;4.18;1.80;;;;;;;;;;5048809;28;20036;-81
2023/05/03 02:50:53;;;;;;;5.25;1.48;;;;;;;;;;5052205;28;20154;-81
2023/05/03 02:53:19;;;;;;;4.88;1.40;;;;;;;;;;5052124;28;20043;-80
2023/05/03 02:55:45;;;;;;;4.90;1.50;;;;;;;;;;5040506;28;20040;-81
2023/05/03 02:58:10;;;;;;;6.45;1.55;;;;;;;;;;5051142;28;20443;-81
2023/05/03 03:00:36;;;;;;;6.32;1.63;;;;;;;;;;5056991;28;20052;-80
2023/05/03 03:03:01;;;;;;;5.47;1.55;;;;;;;;;;5049819;28;20126;-80
2023/05/03 03:05:26;;;;;;;7.50;1.50;;;;;;;;;;5051112;28;20029;-81
2023/05/03 03:07:53;;;;;;;2.90;1.65;;;;;;;;;;5050711;28;20029;-81
2023/05/03 03:10:18;;;;;;;6.63;1.55;;;;;;;;;;5052144;28;20043;-80
2023/05/03 03:12:43;;;;;;;3.80;1.50;;;;;;;;;;5051972;28;20482;-79
2023/05/03 03:15:09;;;;;;;3.53;1.50;;;;;;;;;;5042208;28;20048;-81
2023/05/03 03:17:38;;;;;;;5.68;1.65;;;;;;;;;;5055993;28;20033;-80
2023/05/03 03:20:10;;;;;;;5.72;1.30;;;;;;;;;;5045421;28;20548;-81
2023/05/03 03:22:36;;;;;;;3.63;1.50;;;;;;;;;;5023580;28;20036;-82
2023/05/03 03:25:03;;;;;;;3.42;1.58;;;;;;;;;;5056319;28;20822;-81
2023/05/03 03:27:29;;;;;;;3.83;1.73;;;;;;;;;;5054714;28;20033;-82
2023/05/03 03:29:54;;;;;;;7.35;2.10;;;;;;;;;;5053637;28;20040;-81
2023/05/03 03:32:20;;;;;;;4.47;1.52;;;;;;;;;;5054791;28;20509;-82
2023/05/03 03:34:46;;;;;;;4.60;1.73;;;;;;;;;;5040300;28;20083;-82
2023/05/03 03:37:11;;;;;;;4.95;1.58;;;;;;;;;;5053382;28;20087;-81
2023/05/03 03:39:38;;;;;;;3.65;1.27;;;;;;;;;;5053678;28;20067;-81
2023/05/03 03:42:05;;;;;;;6.30;1.83;;;;;;;;;;5051834;28;20119;-81
2023/05/03 03:44:30;;;;;;;5.63;1.80;;;;;;;;;;5055417;28;20520;-79
2023/05/03 03:46:55;;;;;;;4.82;1.52;;;;;;;;;;5044256;28;20063;-79
2023/05/03 03:49:21;;;;;;;4.93;1.70;;;;;;;;;;5056640;28;20047;-79
2023/05/03 03:51:46;;;;;;;5.63;1.50;;;;;;;;;;5053928;28;20043;-80
2023/05/03 03:54:12;;;;;;;5.57;1.80;;;;;;;;;;5055651;28;20048;-80
2023/05/03 03:56:38;;;;;;;4.25;1.60;;;;;;;;;;5050578;28;20560;-80
2023/05/03 03:59:03;;;;;;;4.35;1.63;;;;;;;;;;5054282;28;20028;-79
2023/05/03 04:01:29;;;;;;;3.65;1.60;;;;;;;;;;5054497;28;20079;-80
2023/05/03 04:03:54;;;;;;;4.72;1.90;;;;;;;;;;5054989;28;20549;-79
2023/05/03 04:06:20;;;;;;;5.60;1.63;;;;;;;;;;5051882;28;20421;-80
2023/05/03 04:08:45;;;;;;;3.47;1.63;;;;;;;;;;5039692;28;20037;-80
2023/05/03 04:11:11;;;;;;;4.32;1.42;;;;;;;;;;5055232;28;20025;-80
2023/05/03 04:13:36;;;;;;;5.55;2.00;;;;;;;;;;5061762;28;20115;-80
2023/05/03 04:16:02;;;;;;;6.15;1.40;;;;;;;;;;5041943;28;20381;-80
2023/05/03 04:18:27;;;;;;;6.60;1.63;;;;;;;;;;5055863;28;20028;-80
2023/05/03 04:20:53;;;;;;;3.38;1.45;;;;;;;;;;5052198;28;20818;-79
2023/05/03 04:23:18;;;;;;;9.70;1.85;;;;;;;;;;5052049;28;20421;-80
2023/05/03 04:25:47;;;;;;;6.72;1.90;;;;;;;;;;5044823;28;20033;-80
2023/05/03 04:28:12;;;;;;;3.13;1.45;;;;;;;;;;5060376;28;20040;-79
2023/05/03 04:30:38;;;;;;;5.22;1.90;;;;;;;;;;5052733;28;20037;-80
2023/05/03 04:33:03;;;;;;;6.03;1.85;;;;;;;;;;5051251;28;20480;-80
2023/05/03 04:35:29;;;;;;;5.57;1.67;;;;;;;;;;5052133;28;20780;-80
2023/05/03 04:37:55;;;;;;;5.75;2.03;;;;;;;;;;5058364;28;20441;-80
2023/05/03 04:40:20;;;;;;;4.78;1.50;;;;;;;;;;5050887;28;20841;-80
2023/05/03 04:42:46;;;;;;;5.45;1.50;;;;;;;;;;5053870;28;20076;-80
2023/05/03 04:45:13;;;;;;;5.68;1.70;;;;;;;;;;5060854;28;20033;-80
2023/05/03 04:47:39;;;;;;;5.22;1.33;;;;;;;;;;5045430;28;20037;-80
2023/05/03 04:50:06;;;;;;;4.13;1.50;;;;;;;;;;5040541;28;20028;-79
2023/05/03 04:52:32;;;;;;;6.05;1.58;;;;;;;;;;5052884;28;20033;-80
2023/05/03 04:54:57;;;;;;;5.05;1.35;;;;;;;;;;5051092;28;20816;-80
2023/05/03 04:57:23;;;;;;;7.60;1.92;;;;;;;;;;5051408;28;20396;-80
2023/05/03 04:59:48;;;;;;;4.20;1.60;;;;;;;;;;5051466;28;20044;-81
2023/05/03 05:02:14;;;;;;;3.45;1.38;;;;;;;;;;5052933;28;20060;-80
2023/05/03 05:04:39;;;;;;;3.47;1.33;;;;;;;;;;5051360;28;20539;-80
2023/05/03 05:07:05;;;;;;;4.05;1.80;;;;;;;;;;5044561;28;20025;-80
2023/05/03 05:09:30;;;;;;;4.15;1.50;;;;;;;;;;5037654;28;20041;-80
2023/05/03 05:11:56;;;;;;;8.07;2.42;;;;;;;;;;5057863;28;20120;-80
2023/05/03 05:14:21;;;;;;;4.28;1.40;;;;;;;;;;5036089;28;20045;-79
2023/05/03 05:16:47;;;;;;;3.72;1.65;;;;;;;;;;5054180;28;20064;-81
2023/05/03 05:19:12;;;;;;;2.95;1.20;;;;;;;;;;5052697;28;20115;-81
2023/05/03 05:21:38;;;;;;;5.10;1.60;;;;;;;;;;5053800;28;20435;-81
2023/05/03 05:24:04;;;;;;;3.97;1.42;;;;;;;;;;5057193;28;20036;-82
2023/05/03 05:26:29;;;;;;;3.10;1.30;;;;;;;;;;5022599;28;20072;-81
2023/05/03 05:28:55;;;;;;;2.20;1.17;;;;;;;;;;5017201;28;20115;-81
2023/05/03 05:31:20;;;;;;;4.90;1.55;;;;;;;;;;5042596;28;20029;-81
2023/05/03 05:33:46;;;;;;;5.85;1.58;;;;;;;;;;5051144;28;20253;-81
2023/05/03 05:36:11;;;;;;;4.30;1.52;;;;;;;;;;5050800;28;20041;-82
2023/05/03 05:38:37;;;;;;;3.53;1.40;;;;;;;;;;5053549;28;20028;-81
2023/05/03 05:41:02;;;;;;;4.65;1.40;;;;;;;;;;5051858;28;20330;-81
2023/05/03 05:43:27;;;;;;;3.42;1.33;;;;;;;;;;5038500;28;20057;-81
2023/05/03 05:45:53;;;;;;;4.18;1.23;;;;;;;;;;5053947;28;20483;-81
2023/05/03 05:48:18;;;;;;;3.83;1.30;;;;;;;;;;5054203;28;20037;-82
2023/05/03 05:50:44;;;;;;;7.13;1.52;;;;;;;;;;5037340;28;20045;-81
2023/05/03 05:53:10;;;;;;;6.07;1.30;;;;;;;;;;5050338;28;20037;-81
2023/05/03 05:55:35;;;;;;;3.92;1.38;;;;;;;;;;5062925;28;20087;-82
2023/05/03 05:58:01;;;;;;;4.93;1.30;;;;;;;;;;5037908;28;20362;-81
2023/05/03 06:00:26;;;;;;;3.85;1.40;;;;;;;;;;5036938;28;20029;-81
2023/05/03 06:02:51;;;;;;;4.55;1.30;;;;;;;;;;5051435;28;20115;-82
2023/05/03 06:05:17;;;;;;;3.38;1.10;;;;;;;;;;5049605;28;20032;-82
2023/05/03 06:07:42;;;;;;;4.40;1.30;;;;;;;;;;5036173;28;20065;-81
2023/05/03 06:10:08;;;;;;;5.60;1.50;;;;;;;;;;5049954;28;20524;-82
2023/05/03 06:12:35;;;;;;;3.35;1.30;;;;;;;;;;5035494;28;20048;-81
2023/05/03 06:15:01;;;;;;;3.30;1.20;;;;;;;;;;5034414;28;20056;-82
2023/05/03 06:17:26;;;;;;;5.45;1.30;;;;;;;;;;5035832;28;20032;-81
2023/05/03 06:19:52;;;;;;;4.70;1.27;;;;;;;;;;5037051;28;20047;-82
2023/05/03 06:22:17;;;;;;;3.85;1.15;;;;;;;;;;5041206;28;20032;-82
2023/05/03 06:24:42;;;;;;;5.25;1.38;;;;;;;;;;5054654;28;20124;-82
2023/05/03 06:27:08;;;;;;;6.85;1.40;;;;;;;;;;5050690;28;20064;-81
2023/05/03 06:29:33;;;;;;;3.05;1.10;;;;;;;;;;5044070;28;20043;-81
2023/05/03 06:31:59;;;;;;;4.28;1.25;;;;;;;;;;5051352;28;20040;-82
2023/05/03 06:34:24;;;;;;;3.88;1.20;;;;;;;;;;5036385;28;20088;-82
2023/05/03 06:36:50;;;;;;;4.88;1.42;;;;;;;;;;5050588;28;20036;-82
2023/05/03 06:39:16;;;;;;;5.13;1.35;;;;;;;;;;5053587;28;20059;-82
2023/05/03 06:41:42;;;;;;;6.18;1.30;;;;;;;;;;5039616;28;20119;-82
2023/05/03 06:44:07;;;;;;;3.80;1.10;;;;;;;;;;5053555;28;20111;-82
2023/05/03 06:46:33;;;;;;;3.97;0.90;;;;;;;;;;5049351;28;20037;-81
2023/05/03 06:48:58;;;;;;;3.67;1.10;;;;;;;;;;5059886;28;20035;-81
2023/05/03 06:51:27;;;;;;;3.42;1.20;;;;;;;;;;5049405;28;20035;-81
2023/05/03 06:53:56;;;;;;;4.18;1.10;;;;;;;;;;5047539;28;20045;-82
2023/05/03 06:56:22;;;;;;;4.25;1.20;;;;;;;;;;5048750;28;20595;-81
2023/05/03 06:58:48;;;;;;;4.07;1.05;;;;;;;;;;5053120;28;20037;-81
2023/05/03 07:01:14;;;;;;;5.22;1.17;;;;;;;;;;5041942;28;20118;-81
2023/05/03 07:03:39;;;;;;;2.58;0.95;;;;;;;;;;5033963;28;20043;-81
2023/05/03 07:06:04;;;;;;;3.40;1.17;;;;;;;;;;5050511;28;20032;-80
2023/05/03 07:11:43;;;;;;;3.55;0.90;;;;;;;;;;4976942;28;20117;-80
2023/05/03 07:14:08;;;;;;;2.75;0.80;;;;;;;;;;5042584;28;20519;-80
2023/05/03 07:16:34;;;;;;;4.18;1.20;;;;;;;;;;5052196;28;20032;-80
2023/05/03 07:18:59;;;;;;;3.33;1.00;;;;;;;;;;5048895;28;20033;-81
2023/05/03 07:21:25;;;;;;;4.30;1.00;;;;;;;;;;5050117;28;20044;-81
2023/05/03 07:23:51;;;;;;;3.72;1.00;;;;;;;;;;5050008;28;20032;-81
2023/05/03 07:26:16;;;;;;;4.90;0.95;;;;;;;;;;5039546;28;20047;-82
2023/05/03 07:28:41;;;;;;;3.42;1.10;;;;;;;;;;5052139;28;20033;-81
2023/05/03 07:31:07;;;;;;;6.20;1.20;;;;;;;;;;5048845;28;20467;-82
2023/05/03 07:33:36;;;;;;;3.67;1.08;;;;;;;;;;5041359;28;20461;-82
2023/05/03 07:36:02;;;;;;;2.92;0.85;;;;;;;;;;5049128;28;20033;-81
2023/05/03 07:38:28;;;;;;;4.40;1.20;;;;;;;;;;5050078;28;20504;-82
2023/05/03 07:40:54;;;;;;;3.00;1.10;;;;;;;;;;5049759;28;20071;-81
2023/05/03 07:43:22;;;;;;;3.15;1.08;;;;;;;;;;5052123;28;20061;-82
2023/05/03 07:45:48;;;;;;;2.13;0.88;;;;;;;;;;5057377;28;20033;-82
2023/05/03 07:48:13;;;;;;;3.90;0.80;;;;;;;;;;5034820;28;20037;-82
2023/05/03 07:50:41;;;;;;;6.32;1.30;;;;;;;;;;5041406;28;20454;-82
2023/05/03 07:53:07;;;;;;;2.85;0.90;;;;;;;;;;5043254;28;20127;-81
2023/05/03 07:55:35;;;;;;;6.38;1.10;;;;;;;;;;5036030;28;20566;-81
2023/05/03 07:58:02;;;;;;;4.70;1.00;;;;;;;;;;5040004;28;20392;-81
2023/05/03 08:00:27;;;;;;;2.92;0.95;;;;;;;;;;5050632;28;20040;-80
2023/05/03 08:02:53;;;;;;;2.47;1.10;;;;;;;;;;5046422;28;20509;-81
2023/05/03 08:05:18;;;;;;;3.67;1.00;;;;;;;;;;5051192;28;20040;-81
2023/05/03 08:07:44;;;;;;;3.08;0.80;;;;;;;;;;5053687;28;20110;-81
2023/05/03 08:10:10;;;;;;;8.05;1.15;;;;;;;;;;5055059;28;20059;-81
2023/05/03 08:12:35;;;;;;;3.50;1.00;;;;;;;;;;5050792;28;20365;-81
2023/05/03 08:15:03;;;;;;;4.07;1.20;;;;;;;;;;5046253;28;20040;-82
2023/05/03 08:17:29;;;;;;;3.03;1.10;;;;;;;;;;5045875;28;20053;-82
2023/05/03 08:19:55;;;;;;;3.08;0.98;;;;;;;;;;5053298;28;20116;-82
2023/05/03 08:22:20;;;;;;;3.17;1.10;;;;;;;;;;5053637;28;20033;-82
2023/05/03 08:24:46;;;;;;;4.50;1.02;;;;;;;;;;5057081;28;20043;-81
2023/05/03 08:27:11;;;;;;;4.07;1.45;;;;;;;;;;5051865;28;20048;-81
2023/05/03 08:29:37;;;;;;;3.10;0.90;;;;;;;;;;5052818;28;20043;-81
2023/05/03 08:32:03;;;;;;;3.28;1.23;;;;;;;;;;5053745;28;20051;-81
2023/05/03 08:34:29;;;;;;;4.85;1.40;;;;;;;;;;5053652;28;20450;-81
2023/05/03 08:36:55;;;;;;;3.63;0.82;;;;;;;;;;5050933;28;20025;-81
2023/05/03 08:39:21;;;;;;;3.78;1.05;;;;;;;;;;5052031;28;20610;-81
2023/05/03 08:41:47;;;;;;;3.42;1.00;;;;;;;;;;5051739;28;20123;-82
2023/05/03 08:44:19;;;;;;;2.92;0.80;;;;;;;;;;5034886;28;20074;-81
2023/05/03 08:46:45;;;;;;;3.42;0.90;;;;;;;;;;5060493;28;20040;-81
2023/05/03 08:49:11;;;;;;;5.78;1.10;;;;;;;;;;5051493;28;20503;-81
2023/05/03 08:51:40;;;;;;;3.35;1.02;;;;;;;;;;5050598;28;20039;-81
2023/05/03 08:54:05;;;;;;;3.47;0.82;;;;;;;;;;5042463;28;20687;-81
2023/05/03 08:56:33;;;;;;;3.40;0.80;;;;;;;;;;5038329;28;20035;-82
2023/05/03 08:59:06;;;;;;;2.63;0.70;;;;;;;;;;5051384;28;20033;-81
2023/05/03 09:01:35;;;;;;;4.18;0.95;;;;;;;;;;5025907;28;20794;-82
2023/05/03 09:04:00;;;;;;;2.40;0.60;;;;;;;;;;5019634;28;20084;-82
2023/05/03 09:06:26;;;;;;;2.92;0.75;;;;;;;;;;5049157;28;20026;-82
2023/05/03 09:08:52;;;;;;;3.10;0.68;;;;;;;;;;5035651;28;20158;-82
2023/05/03 09:11:27;;;;;;;2.45;0.60;;;;;;;;;;5050404;28;20492;-82
2023/05/03 09:13:53;;;;;;;3.22;0.70;;;;;;;;;;5068102;28;20179;-82
2023/05/03 09:16:26;;;;;;;2.50;0.80;;;;;;;;;;5052562;28;20495;-83
2023/05/03 09:19:07;;;;;;;2.92;0.60;;;;;;;;;;5042044;28;20037;-82
2023/05/03 09:21:32;;;;;;;2.80;0.90;;;;;;;;;;5038364;28;20059;-81
2023/05/03 09:23:58;;;;;;;4.38;0.80;;;;;;;;;;5053770;28;20099;-82
2023/05/03 09:26:32;;;;;;;3.13;1.02;;;;;;;;;;5050355;28;20399;-82
2023/05/03 09:29:02;;;;;;;3.05;0.68;;;;;;;;;;5042546;28;20094;-82
2023/05/03 09:31:32;;;;;;;3.40;0.77;;;;;;;;;;5049939;28;20054;-82
2023/05/03 09:33:59;;;;;;;1.48;0.60;;;;;;;;;;5040137;28;20048;-82
2023/05/03 09:36:27;;;;;;;3.97;0.70;;;;;;;;;;5050471;28;20060;-82
2023/05/03 09:38:56;;;;;;;2.97;0.90;;;;;;;;;;5053993;28;20469;-81
2023/05/03 09:41:28;;;;;;;3.38;0.70;;;;;;;;;;5050951;28;20024;-81
2023/05/03 09:43:55;;;;;;;4.45;0.95;;;;;;;;;;5052666;28;20533;-81
2023/05/03 09:46:26;;;;;;;3.08;0.70;;;;;;;;;;5033712;28;20037;-81
2023/05/03 09:48:54;;;;;;;2.22;0.80;;;;;;;;;;5051843;28;20522;-81
2023/05/03 09:51:20;;;;;;;3.67;0.70;;;;;;;;;;5057330;28;20838;-82
2023/05/03 09:53:45;;;;;;;4.30;0.80;;;;;;;;;;5049905;28;20040;-82
2023/05/03 09:56:11;;;;;;;2.42;0.52;;;;;;;;;;5049771;28;20127;-82
2023/05/03 09:58:37;;;;;;;5.97;0.98;;;;;;;;;;5050923;28;20123;-81
2023/05/03 10:01:03;;;;;;;3.30;0.57;;;;;;;;;;5059520;28;20501;-81
2023/05/03 10:03:49;;;;;;;4.63;0.75;;;;;;;;;;5034824;28;20040;-81
2023/05/03 10:06:22;;;;;;;4.35;0.75;;;;;;;;;;5040947;28;20043;-82
2023/05/03 10:08:53;;;;;;;2.38;0.60;;;;;;;;;;5051264;28;20029;-81
2023/05/03 10:11:22;;;;;;;5.47;0.80;;;;;;;;;;5048757;28;20755;-81
2023/05/03 10:13:48;;;;;;;3.85;0.88;;;;;;;;;;5066416;28;20453;-81
2023/05/03 10:16:18;;;;;;;4.55;1.10;;;;;;;;;;5051336;28;20037;-81
2023/05/03 10:18:52;;;;;;;4.53;0.93;;;;;;;;;;5059912;28;20033;-81
2023/05/03 10:21:34;;;;;;;4.47;0.88;;;;;;;;;;5051034;28;20040;-80
2023/05/03 10:24:11;;;;;;;4.40;1.00;;;;;;;;;;5053749;28;20484;-80
2023/05/03 10:26:36;;;;;;;3.38;0.98;;;;;;;;;;5047755;28;20542;-80
2023/05/03 10:29:03;;;;;;;3.10;0.80;;;;;;;;;;5036936;28;20045;-81
2023/05/03 10:31:47;;;;;;;3.53;0.70;;;;;;;;;;5039974;28;20044;-79
2023/05/03 10:34:23;;;;;;;5.53;1.00;;;;;;;;;;5058969;28;20041;-80
2023/05/03 10:36:52;;;;;;;3.70;0.80;;;;;;;;;;5047863;28;20037;-80
2023/05/03 10:39:18;;;;;;;2.47;0.70;;;;;;;;;;5048380;28;20444;-80
2023/05/03 10:41:44;;;;;;;5.32;1.05;;;;;;;;;;5051872;28;20119;-80
2023/05/03 10:44:34;;;;;;;4.22;0.88;;;;;;;;;;5049492;28;20445;-80
2023/05/03 10:47:17;;;;;;;3.22;0.80;;;;;;;;;;5049157;28;20033;-80
2023/05/03 10:49:42;;;;;;;3.28;1.00;;;;;;;;;;5036444;28;20048;-80
2023/05/03 10:52:38;;;;;;;2.75;0.60;;;;;;;;;;5051609;28;20369;-81
2023/05/03 10:55:11;;;;;;;3.67;0.70;;;;;;;;;;5050189;28;20071;-81
2023/05/03 10:57:40;;;;;;;3.53;0.70;;;;;;;;;;5047920;28;20511;-81
2023/05/03 11:00:12;;;;;;;2.60;0.70;;;;;;;;;;5050371;28;20488;-81
2023/05/03 11:03:00;;;;;;;3.83;0.80;;;;;;;;;;5058858;28;20036;-80
2023/05/03 11:05:28;;;;;;;2.67;0.70;;;;;;;;;;5053744;28;20029;-81
2023/05/03 11:08:07;;;;;;;2.83;0.60;;;;;;;;;;5050237;28;20071;-81
2023/05/03 11:10:32;;;;;;;2.92;0.65;;;;;;;;;;5043466;28;20476;-80
2023/05/03 11:12:57;;;;;;;3.17;0.82;;;;;;;;;;5063021;28;20135;-81
2023/05/03 11:15:23;;;;;;;3.40;0.80;;;;;;;;;;5041513;28;20431;-81
2023/05/03 11:17:48;;;;;;;2.83;0.80;;;;;;;;;;5030931;28;20033;-82
2023/05/03 11:20:14;;;;;;;3.17;0.77;;;;;;;;;;5047734;28;20411;-80
2023/05/03 11:22:40;;;;;;;4.35;0.90;;;;;;;;;;5052307;28;20045;-81
2023/05/03 11:25:05;;;;;;;2.55;0.70;;;;;;;;;;5054247;28;20043;-81
2023/05/03 11:27:31;;;;;;;2.35;0.70;;;;;;;;;;5058383;28;20044;-81
2023/05/03 11:29:58;;;;;;;3.47;0.70;;;;;;;;;;5052778;28;20115;-81
2023/05/03 11:32:27;;;;;;;3.28;0.47;;;;;;;;;;5051480;28;20042;-81
2023/05/03 11:34:52;;;;;;;4.20;0.90;;;;;;;;;;5052107;28;20771;-81
2023/05/03 11:37:17;;;;;;;2.40;0.60;;;;;;;;;;5041641;28;20037;-81
2023/05/03 11:39:43;;;;;;;4.07;0.70;;;;;;;;;;5053728;28;20037;-81
2023/05/03 11:42:08;;;;;;;2.22;0.63;;;;;;;;;;5055034;28;20036;-81
2023/05/03 11:44:35;;;;;;;4.78;1.02;;;;;;;;;;5055008;28;20044;-81
2023/05/03 11:47:00;;;;;;;4.53;0.82;;;;;;;;;;5056288;28;20416;-81
2023/05/03 11:49:26;;;;;;;1.60;0.50;;;;;;;;;;5054783;28;20105;-81
2023/05/03 11:51:51;;;;;;;3.08;0.70;;;;;;;;;;5054857;28;20045;-81
2023/05/03 11:54:17;;;;;;;2.42;0.70;;;;;;;;;;5049923;28;20040;-81
2023/05/03 11:56:42;;;;;;;2.65;0.70;;;;;;;;;;5059309;28;20041;-83
2023/05/03 11:59:07;;;;;;;2.17;0.52;;;;;;;;;;5053081;28;20545;-81
2023/05/03 12:01:33;;;;;;;2.78;0.70;;;;;;;;;;5059494;28;20040;-80
2023/05/03 12:04:01;;;;;;;7.47;1.23;;;;;;;;;;5053179;28;20032;-81
2023/05/03 12:06:27;;;;;;;4.80;0.88;;;;;;;;;;5060715;28;20032;-83
2023/05/03 12:08:53;;;;;;;2.72;0.82;;;;;;;;;;5051857;28;20524;-81
2023/05/03 12:11:20;;;;;;;2.83;0.90;;;;;;;;;;5056352;28;20481;-81
2023/05/03 12:13:55;;;;;;;5.18;1.08;;;;;;;;;;5058749;28;20040;-81
2023/05/03 12:16:21;;;;;;;5.88;0.90;;;;;;;;;;5053092;28;20036;-81
2023/05/03 12:19:01;;;;;;;3.63;1.10;;;;;;;;;;5050934;28;20079;-81
2023/05/03 12:21:47;;;;;;;3.78;0.90;;;;;;;;;;5058349;28;20148;-83
2023/05/03 12:24:17;;;;;;;4.38;1.15;;;;;;;;;;5050656;28;20033;-81
2023/05/03 12:26:44;;;;;;;3.28;1.00;;;;;;;;;;5051305;28;20103;-81
2023/05/03 12:29:09;;;;;;;3.42;1.42;;;;;;;;;;5054033;28;20116;-82
2023/05/03 12:31:36;;;;;;;3.70;0.90;;;;;;;;;;5054541;28;20140;-81
2023/05/03 12:34:03;;;;;;;5.07;1.40;;;;;;;;;;5056493;28;20041;-82
2023/05/03 12:36:30;;;;;;;3.20;1.00;;;;;;;;;;5053107;28;20390;-82
2023/05/03 12:38:55;;;;;;;5.43;1.10;;;;;;;;;;5053833;28;20058;-81
2023/05/03 12:41:22;;;;;;;3.63;1.00;;;;;;;;;;5052448;28;20032;-82
2023/05/03 12:43:48;;;;;;;5.70;1.20;;;;;;;;;;5051960;28;20537;-81
2023/05/03 12:46:13;;;;;;;6.20;1.33;;;;;;;;;;5053501;28;20341;-81
2023/05/03 12:48:38;;;;;;;4.90;1.38;;;;;;;;;;5037307;28;20407;-81
2023/05/03 12:51:04;;;;;;;2.78;1.00;;;;;;;;;;5051131;28;20112;-81
2023/05/03 12:53:30;;;;;;;3.50;1.30;;;;;;;;;;5052205;28;20098;-81
2023/05/03 12:55:55;;;;;;;6.00;1.17;;;;;;;;;;5050384;28;20040;-81
2023/05/03 12:58:21;;;;;;;2.80;1.00;;;;;;;;;;5053446;28;20041;-81
2023/05/03 13:00:47;;;;;;;3.65;1.13;;;;;;;;;;5043096;28;20044;-83
2023/05/03 13:03:13;;;;;;;4.05;1.17;;;;;;;;;;5052013;28;20032;-83
2023/05/03 13:05:39;;;;;;;4.32;1.15;;;;;;;;;;5054383;28;20433;-82
2023/05/03 13:08:05;;;;;;;4.13;0.90;;;;;;;;;;5060585;28;20148;-82
2023/05/03 13:10:30;;;;;;;5.68;1.10;;;;;;;;;;5056355;28;20059;-82
2023/05/03 13:12:56;;;;;;;2.28;0.95;;;;;;;;;;5053481;28;20045;-82
2023/05/03 13:15:24;;;;;;;4.72;1.08;;;;;;;;;;5053107;28;20045;-82
2023/05/03 13:17:50;;;;;;;6.63;1.08;;;;;;;;;;5052536;28;20485;-82
2023/05/03 13:20:15;;;;;;;3.70;0.93;;;;;;;;;;5052236;28;20041;-82
2023/05/03 13:22:41;;;;;;;7.90;1.27;;;;;;;;;;5059336;28;20055;-83
2023/05/03 13:25:07;;;;;;;3.90;1.15;;;;;;;;;;5053140;28;20037;-81
2023/05/03 13:27:32;;;;;;;3.67;1.20;;;;;;;;;;5051769;28;20055;-82
2023/05/03 13:29:59;;;;;;;4.13;1.48;;;;;;;;;;5053167;28;20650;-81
2023/05/03 13:32:25;;;;;;;5.00;1.43;;;;;;;;;;5050613;28;20036;-82
2023/05/03 13:34:50;;;;;;;3.25;1.10;;;;;;;;;;5051058;28;20539;-82
2023/05/03 13:37:17;;;;;;;1.77;0.60;;;;;;;;;;5053070;28;20887;-81
2023/05/03 13:39:43;;;;;;;4.22;1.05;;;;;;;;;;5051534;28;20561;-82
2023/05/03 13:42:08;;;;;;;3.72;1.20;;;;;;;;;;5037854;28;20028;-83
2023/05/03 13:44:34;;;;;;;4.80;1.13;;;;;;;;;;5051552;28;20087;-82
2023/05/03 13:47:00;;;;;;;4.32;0.70;;;;;;;;;;5050592;28;20044;-83
2023/05/03 13:49:25;;;;;;;2.60;0.80;;;;;;;;;;5049893;28;20037;-82
2023/05/03 13:51:51;;;;;;;2.25;0.82;;;;;;;;;;5049264;28;20449;-82
2023/05/03 13:54:16;;;;;;;2.92;0.80;;;;;;;;;;5037656;28;20640;-83
2023/05/03 13:56:42;;;;;;;2.42;0.73;;;;;;;;;;5050764;28;20036;-83
2023/05/03 13:59:08;;;;;;;3.58;0.80;;;;;;;;;;5050695;28;20480;-83
2023/05/03 14:01:34;;;;;;;4.70;0.80;;;;;;;;;;5050479;28;20388;-82
2023/05/03 14:04:00;;;;;;;3.60;0.90;;;;;;;;;;5051951;28;20567;-83
2023/05/03 14:06:26;;;;;;;2.55;0.90;;;;;;;;;;5048679;28;20144;-79
2023/05/03 14:08:56;;;;;;;3.15;0.80;;;;;;;;;;5043156;28;20040;-79
2023/05/03 14:11:23;;;;;;;3.13;0.82;;;;;;;;;;5051719;28;20036;-78
2023/05/03 14:13:49;;;;;;;4.13;0.88;;;;;;;;;;5050174;28;20487;-78
2023/05/03 14:16:19;;;;;;;2.20;0.80;;;;;;;;;;5036886;28;20029;-78
2023/05/03 14:18:46;;;;;;;2.80;0.85;;;;;;;;;;5038656;28;20534;-78
2023/05/03 14:21:12;;;;;;;3.95;0.85;;;;;;;;;;5052272;28;20521;-78
2023/05/03 14:23:39;;;;;;;4.35;1.17;;;;;;;;;;5054912;28;20442;-78
2023/05/03 14:26:07;;;;;;;6.60;1.60;;;;;;;;;;5048865;28;20037;-79
2023/05/03 14:28:33;;;;;;;4.22;0.80;;;;;;;;;;5051697;28;20276;-78
2023/05/03 14:30:58;;;;;;;3.30;0.98;;;;;;;;;;5049558;28;20087;-77
2023/05/03 14:33:23;;;;;;;4.90;1.02;;;;;;;;;;5053640;28;20425;-77
2023/05/03 14:35:49;;;;;;;3.88;1.00;;;;;;;;;;5052441;28;20044;-79
2023/05/03 14:38:14;;;;;;;2.88;0.88;;;;;;;;;;5049992;28;20051;-79
2023/05/03 14:40:41;;;;;;;3.25;0.93;;;;;;;;;;5052870;28;20068;-78
2023/05/03 14:43:08;;;;;;;4.18;1.10;;;;;;;;;;5048900;28;20936;-77
2023/05/03 14:45:36;;;;;;;4.38;1.05;;;;;;;;;;5051494;28;20028;-76